Impacts METAR Board
IDs:

KPIT - Pittsburgh Intl, PA, US

Updated at: 1000 UTC 30 Oct 2020
Potential Impact None Slight Moderate High
Time 29/22Z 29/23Z 30/00Z 30/01Z 30/02Z 30/03Z 30/04Z 30/05Z 30/06Z 30/07Z 30/08Z 30/09Z 30/10Z
Temp48 47 47 47 46 46 45 45 45 44 44 45 44
Dewpt45 45 45 44 44 44 44 43 42 43 43 42 40
Altim29.61 29.64 29.67 29.67 29.69 29.70 29.70 29.70 29.73 29.76 29.79 29.82 29.84
VIS10 4 8 10 6 5 4 6 7 9 9 10 10
CIG9 7 6 8 7 8 7 9 9 30 12 9 15
CoverOVCOVCOVCOVCOVCOVCOVCOVCOVCOVCOVCOVCOVC
FltCatIFRIFRIFRIFRIFRIFRIFRIFRIFRMVFRMVFRIFRMVFR
WX-DZ-RA BR-RA-DZ-RA BR-RA BR-RA BR-RA BR-RA---RA----
WDir201010203601020101036033034010
WSpd10 12 13 11 11 7 8 10 9 5 7 7 9
WGst-- -- -- -- -- -- -- -- -- -- -- -- --
Raw hourly METARs
KPIT 292151Z 02010KT 10SM -DZ BKN009 OVC014 09/07 A2961 RMK AO2 DZB48 SLP036 P0000 T00890072 $
KPIT 292251Z 01012KT 4SM -RA BR BKN007 BKN014 OVC025 08/07 A2964 RMK AO2 DZE22RAB22 SLP045 P0002 T00830072 $
KPIT 292351Z 01013KT 8SM -RA OVC006 08/07 A2967 RMK AO2 SLP057 P0008 60032 T00830072 10089 20083 51031 $
KPIT 300051Z 02011KT 10SM -DZ OVC008 08/07 A2967 RMK AO2 RAE25DZB25 SLP056 P0000 T00830067 $
KPIT 300151Z 36011KT 6SM -RA BR BKN007 OVC013 08/07 A2969 RMK AO2 DZE0056RAB0056 SLP063 P0001 T00780067 $
KPIT 300251Z 01007KT 5SM -RA BR BKN008 OVC012 08/07 A2970 RMK AO2 SLP067 P0003 60004 T00780067 53009 $
KPIT 300351Z 02008KT 4SM -RA BR BKN007 OVC013 07/07 A2970 RMK AO2 SLP069 P0003 T00720067 $
KPIT 300451Z 01010KT 6SM -RA BR BKN009 OVC015 07/06 A2970 RMK AO2 SLP068 P0005 T00720061 401000072 $
KPIT 300551Z 01009KT 7SM -RA BKN009 OVC018 07/06 A2973 RMK AO2 SLP077 P0006 60018 T00720056 10083 20072 53009 $
KPIT 300651Z 36005KT 9SM SCT009 SCT015 OVC030 07/06 A2976 RMK AO2 RAE50 SLP087 P0009 T00670061 $
KPIT 300751Z 33007KT 9SM -RA SCT004 BKN012 OVC035 07/06 A2979 RMK AO2 RAB33 SLP098 P0000 T00670061 $
KPIT 300851Z 34007KT 10SM BKN009 OVC015 07/06 A2982 RMK AO2 RAE27 SLP108 P0000 60009 T00720056 53030 $
KPIT 300951Z 01009KT 10SM FEW009 BKN015 OVC026 07/04 A2984 RMK AO2 RAB17E33 SLP118 P0000 T00670044 $



Page loaded:  10:41 UTC  |   03:41 AM Pacific  |   04:41 AM Mountain  |   05:41 AM Central  |   06:41 AM Eastern

 

ADVISORIES

FORECASTS

FORECASTS

OBSERVATIONS

USER TOOLS

ABOUT US